sensor_id;sensor_type;location;lat;lon;timestamp;P1;durP1;ratioP1;P2;durP2;ratioP2
49820;SDS011;36893;52.520;13.450;2023-12-20T00:09:29;9.75;;;1.80;;
49820;SDS011;36893;52.520;13.450;2023-12-20T00:19:29;3.27;;;1.30;;
49820;SDS011;36893;52.520;13.450;2023-12-20T00:29:30;2.50;;;1.10;;
49820;SDS011;36893;52.520;13.450;2023-12-20T00:39:31;5.07;;;1.80;;
49820;SDS011;36893;52.520;13.450;2023-12-20T00:49:33;3.13;;;1.23;;
49820;SDS011;36893;52.520;13.450;2023-12-20T00:59:33;2.83;;;1.10;;
49820;SDS011;36893;52.520;13.450;2023-12-20T01:09:34;3.87;;;1.20;;
49820;SDS011;36893;52.520;13.450;2023-12-20T01:19:34;2.90;;;1.60;;
49820;SDS011;36893;52.520;13.450;2023-12-20T01:29:38;3.13;;;1.00;;
49820;SDS011;36893;52.520;13.450;2023-12-20T01:39:38;4.70;;;1.37;;
49820;SDS011;36893;52.520;13.450;2023-12-20T01:49:39;2.40;;;0.87;;
49820;SDS011;36893;52.520;13.450;2023-12-20T01:59:40;4.25;;;1.00;;
49820;SDS011;36893;52.520;13.450;2023-12-20T02:09:41;3.17;;;1.27;;
49820;SDS011;36893;52.520;13.450;2023-12-20T02:19:54;2.85;;;1.20;;
49820;SDS011;36893;52.520;13.450;2023-12-20T02:29:54;2.77;;;0.70;;
49820;SDS011;36893;52.520;13.450;2023-12-20T02:39:55;1.95;;;0.80;;
49820;SDS011;36893;52.520;13.450;2023-12-20T02:49:56;5.20;;;0.87;;
49820;SDS011;36893;52.520;13.450;2023-12-20T02:59:56;3.10;;;1.13;;
49820;SDS011;36893;52.520;13.450;2023-12-20T03:09:57;1.97;;;1.00;;
49820;SDS011;36893;52.520;13.450;2023-12-20T03:19:58;2.63;;;0.90;;
49820;SDS011;36893;52.520;13.450;2023-12-20T03:29:58;1.97;;;0.90;;
49820;SDS011;36893;52.520;13.450;2023-12-20T03:39:59;1.97;;;0.63;;
49820;SDS011;36893;52.520;13.450;2023-12-20T03:50:00;1.43;;;0.70;;
49820;SDS011;36893;52.520;13.450;2023-12-20T04:00:00;1.30;;;0.77;;
49820;SDS011;36893;52.520;13.450;2023-12-20T04:10:01;0.97;;;0.57;;
49820;SDS011;36893;52.520;13.450;2023-12-20T04:20:03;1.73;;;0.60;;
49820;SDS011;36893;52.520;13.450;2023-12-20T04:30:05;2.08;;;0.90;;
49820;SDS011;36893;52.520;13.450;2023-12-20T04:40:07;1.30;;;0.65;;
49820;SDS011;36893;52.520;13.450;2023-12-20T04:50:08;0.93;;;0.45;;
49820;SDS011;36893;52.520;13.450;2023-12-20T05:00:10;1.98;;;0.80;;
49820;SDS011;36893;52.520;13.450;2023-12-20T05:10:11;0.80;;;0.63;;
49820;SDS011;36893;52.520;13.450;2023-12-20T05:20:12;1.63;;;0.93;;
49820;SDS011;36893;52.520;13.450;2023-12-20T05:30:12;0.77;;;0.60;;
49820;SDS011;36893;52.520;13.450;2023-12-20T05:40:13;3.35;;;0.90;;
49820;SDS011;36893;52.520;13.450;2023-12-20T05:50:14;3.40;;;0.73;;
49820;SDS011;36893;52.520;13.450;2023-12-20T06:00:15;0.77;;;0.52;;
49820;SDS011;36893;52.520;13.450;2023-12-20T06:10:16;1.17;;;0.68;;
49820;SDS011;36893;52.520;13.450;2023-12-20T06:20:17;2.08;;;0.52;;
49820;SDS011;36893;52.520;13.450;2023-12-20T06:30:18;1.83;;;0.60;;
49820;SDS011;36893;52.520;13.450;2023-12-20T06:40:18;1.37;;;0.70;;
49820;SDS011;36893;52.520;13.450;2023-12-20T06:50:19;1.93;;;0.70;;
49820;SDS011;36893;52.520;13.450;2023-12-20T07:00:20;3.25;;;0.70;;
49820;SDS011;36893;52.520;13.450;2023-12-20T07:10:21;1.07;;;0.70;;
49820;SDS011;36893;52.520;13.450;2023-12-20T07:20:21;3.07;;;0.60;;
49820;SDS011;36893;52.520;13.450;2023-12-20T07:30:22;1.63;;;0.50;;
49820;SDS011;36893;52.520;13.450;2023-12-20T07:40:23;7.53;;;0.80;;
49820;SDS011;36893;52.520;13.450;2023-12-20T07:50:24;1.25;;;0.50;;
49820;SDS011;36893;52.520;13.450;2023-12-20T08:00:24;6.20;;;1.60;;
49820;SDS011;36893;52.520;13.450;2023-12-20T08:10:25;12.43;;;2.33;;
49820;SDS011;36893;52.520;13.450;2023-12-20T08:20:27;18.67;;;2.47;;
49820;SDS011;36893;52.520;13.450;2023-12-20T08:30:27;8.33;;;2.63;;
49820;SDS011;36893;52.520;13.450;2023-12-20T08:40:29;9.93;;;2.80;;
49820;SDS011;36893;52.520;13.450;2023-12-20T08:50:30;10.05;;;1.77;;
49820;SDS011;36893;52.520;13.450;2023-12-20T09:00:31;9.25;;;1.77;;
49820;SDS011;36893;52.520;13.450;2023-12-20T09:10:31;10.13;;;2.40;;
49820;SDS011;36893;52.520;13.450;2023-12-20T09:20:32;7.03;;;1.63;;
49820;SDS011;36893;52.520;13.450;2023-12-20T09:30:34;6.57;;;1.50;;
49820;SDS011;36893;52.520;13.450;2023-12-20T09:40:37;7.83;;;2.10;;
49820;SDS011;36893;52.520;13.450;2023-12-20T09:50:41;11.65;;;1.77;;
49820;SDS011;36893;52.520;13.450;2023-12-20T10:00:42;6.15;;;1.92;;
49820;SDS011;36893;52.520;13.450;2023-12-20T10:10:42;9.00;;;2.37;;
49820;SDS011;36893;52.520;13.450;2023-12-20T10:20:43;4.80;;;1.40;;
49820;SDS011;36893;52.520;13.450;2023-12-20T10:30:45;6.70;;;2.00;;
49820;SDS011;36893;52.520;13.450;2023-12-20T10:40:46;5.03;;;1.50;;
49820;SDS011;36893;52.520;13.450;2023-12-20T10:50:46;5.90;;;2.80;;
49820;SDS011;36893;52.520;13.450;2023-12-20T11:00:47;5.55;;;1.50;;
49820;SDS011;36893;52.520;13.450;2023-12-20T11:10:55;4.80;;;1.90;;
49820;SDS011;36893;52.520;13.450;2023-12-20T11:21:05;5.50;;;1.75;;
49820;SDS011;36893;52.520;13.450;2023-12-20T11:31:06;5.73;;;1.63;;
49820;SDS011;36893;52.520;13.450;2023-12-20T11:41:06;7.13;;;1.83;;
49820;SDS011;36893;52.520;13.450;2023-12-20T11:51:09;6.93;;;1.75;;
49820;SDS011;36893;52.520;13.450;2023-12-20T12:01:11;6.25;;;1.73;;
49820;SDS011;36893;52.520;13.450;2023-12-20T12:11:11;7.33;;;1.83;;
49820;SDS011;36893;52.520;13.450;2023-12-20T12:21:19;4.77;;;1.70;;
49820;SDS011;36893;52.520;13.450;2023-12-20T12:31:20;7.45;;;2.15;;
49820;SDS011;36893;52.520;13.450;2023-12-20T12:41:21;4.70;;;1.57;;
49820;SDS011;36893;52.520;13.450;2023-12-20T12:51:22;4.77;;;1.97;;
49820;SDS011;36893;52.520;13.450;2023-12-20T13:01:22;4.43;;;1.80;;
49820;SDS011;36893;52.520;13.450;2023-12-20T13:11:23;6.83;;;1.80;;
49820;SDS011;36893;52.520;13.450;2023-12-20T13:21:25;3.78;;;2.03;;
49820;SDS011;36893;52.520;13.450;2023-12-20T13:31:25;6.67;;;2.30;;
49820;SDS011;36893;52.520;13.450;2023-12-20T13:41:26;6.07;;;1.60;;
49820;SDS011;36893;52.520;13.450;2023-12-20T13:51:27;6.87;;;2.10;;
49820;SDS011;36893;52.520;13.450;2023-12-20T14:01:27;5.40;;;2.35;;
49820;SDS011;36893;52.520;13.450;2023-12-20T14:11:28;5.70;;;1.88;;
49820;SDS011;36893;52.520;13.450;2023-12-20T14:21:29;10.57;;;3.57;;
49820;SDS011;36893;52.520;13.450;2023-12-20T14:31:29;4.53;;;2.00;;
49820;SDS011;36893;52.520;13.450;2023-12-20T14:41:30;6.53;;;1.90;;
49820;SDS011;36893;52.520;13.450;2023-12-20T14:51:31;5.22;;;1.88;;
49820;SDS011;36893;52.520;13.450;2023-12-20T15:01:32;7.07;;;2.00;;
49820;SDS011;36893;52.520;13.450;2023-12-20T15:11:32;8.03;;;1.97;;
49820;SDS011;36893;52.520;13.450;2023-12-20T15:21:33;6.37;;;2.53;;
49820;SDS011;36893;52.520;13.450;2023-12-20T15:31:46;7.25;;;2.45;;
49820;SDS011;36893;52.520;13.450;2023-12-20T15:41:48;4.97;;;1.63;;
49820;SDS011;36893;52.520;13.450;2023-12-20T15:51:49;4.82;;;1.58;;
49820;SDS011;36893;52.520;13.450;2023-12-20T16:01:50;4.90;;;1.80;;
49820;SDS011;36893;52.520;13.450;2023-12-20T16:11:50;6.00;;;1.70;;
49820;SDS011;36893;52.520;13.450;2023-12-20T16:21:51;3.57;;;1.60;;
49820;SDS011;36893;52.520;13.450;2023-12-20T16:31:52;5.73;;;1.80;;
49820;SDS011;36893;52.520;13.450;2023-12-20T16:41:52;4.05;;;1.80;;
49820;SDS011;36893;52.520;13.450;2023-12-20T16:51:53;5.27;;;1.87;;
49820;SDS011;36893;52.520;13.450;2023-12-20T17:01:54;4.63;;;1.80;;
49820;SDS011;36893;52.520;13.450;2023-12-20T17:11:55;5.45;;;1.80;;
49820;SDS011;36893;52.520;13.450;2023-12-20T17:21:55;4.07;;;1.60;;
49820;SDS011;36893;52.520;13.450;2023-12-20T17:31:56;4.83;;;1.37;;
49820;SDS011;36893;52.520;13.450;2023-12-20T17:41:57;3.60;;;1.50;;
49820;SDS011;36893;52.520;13.450;2023-12-20T17:51:57;3.90;;;1.47;;
49820;SDS011;36893;52.520;13.450;2023-12-20T18:01:58;4.83;;;1.67;;
49820;SDS011;36893;52.520;13.450;2023-12-20T18:11:58;7.90;;;1.87;;
49820;SDS011;36893;52.520;13.450;2023-12-20T18:21:59;1.93;;;1.10;;
49820;SDS011;36893;52.520;13.450;2023-12-20T18:32:00;6.18;;;1.50;;
49820;SDS011;36893;52.520;13.450;2023-12-20T18:42:00;4.70;;;1.63;;
49820;SDS011;36893;52.520;13.450;2023-12-20T18:52:03;4.30;;;1.10;;
49820;SDS011;36893;52.520;13.450;2023-12-20T19:02:06;8.43;;;4.25;;
49820;SDS011;36893;52.520;13.450;2023-12-20T19:12:08;5.55;;;1.90;;
49820;SDS011;36893;52.520;13.450;2023-12-20T19:22:09;5.30;;;1.45;;
49820;SDS011;36893;52.520;13.450;2023-12-20T19:32:09;3.67;;;1.43;;
49820;SDS011;36893;52.520;13.450;2023-12-20T19:42:10;3.95;;;1.70;;
49820;SDS011;36893;52.520;13.450;2023-12-20T19:52:11;2.77;;;1.20;;
49820;SDS011;36893;52.520;13.450;2023-12-20T20:02:12;4.93;;;1.23;;
49820;SDS011;36893;52.520;13.450;2023-12-20T20:12:12;4.83;;;1.67;;
49820;SDS011;36893;52.520;13.450;2023-12-20T20:22:13;7.13;;;1.60;;
49820;SDS011;36893;52.520;13.450;2023-12-20T20:32:18;4.47;;;1.95;;
49820;SDS011;36893;52.520;13.450;2023-12-20T20:42:19;4.03;;;1.70;;
49820;SDS011;36893;52.520;13.450;2023-12-20T20:52:20;6.53;;;1.88;;
49820;SDS011;36893;52.520;13.450;2023-12-20T21:02:21;2.72;;;1.33;;
49820;SDS011;36893;52.520;13.450;2023-12-20T21:12:21;5.30;;;1.33;;
49820;SDS011;36893;52.520;13.450;2023-12-20T21:22:25;2.60;;;1.20;;
49820;SDS011;36893;52.520;13.450;2023-12-20T21:32:25;8.87;;;1.87;;
49820;SDS011;36893;52.520;13.450;2023-12-20T21:42:26;3.83;;;1.27;;
49820;SDS011;36893;52.520;13.450;2023-12-20T21:52:27;3.60;;;1.67;;
49820;SDS011;36893;52.520;13.450;2023-12-20T22:02:28;10.00;;;1.50;;
49820;SDS011;36893;52.520;13.450;2023-12-20T22:12:29;12.68;;;2.53;;
49820;SDS011;36893;52.520;13.450;2023-12-20T22:22:29;7.13;;;2.00;;
49820;SDS011;36893;52.520;13.450;2023-12-20T22:32:30;8.82;;;2.55;;
49820;SDS011;36893;52.520;13.450;2023-12-20T22:42:31;10.93;;;3.00;;
49820;SDS011;36893;52.520;13.450;2023-12-20T23:02:36;7.65;;;2.42;;
49820;SDS011;36893;52.520;13.450;2023-12-20T23:12:40;12.23;;;2.83;;
49820;SDS011;36893;52.520;13.450;2023-12-20T23:22:41;10.13;;;2.67;;
49820;SDS011;36893;52.520;13.450;2023-12-20T23:32:42;7.67;;;2.23;;
49820;SDS011;36893;52.520;13.450;2023-12-20T23:42:42;10.38;;;2.67;;
49820;SDS011;36893;52.520;13.450;2023-12-20T23:52:43;7.37;;;2.00;;
